createdAt,value
2023-01-29T00:00:09.423Z,-0.66
2023-01-29T00:02:37.083Z,-0.76
2023-01-29T00:05:25.561Z,-0.73
2023-01-29T00:07:51.513Z,-0.79
2023-01-29T00:10:18.068Z,-0.80
2023-01-29T00:12:44.618Z,-0.81
2023-01-29T00:15:10.932Z,-0.79
2023-01-29T00:17:37.256Z,-0.91
2023-01-29T00:20:03.960Z,-0.93
2023-01-29T00:22:30.767Z,-0.95
2023-01-29T00:24:57.113Z,-0.97
2023-01-29T00:27:23.563Z,-1.01
2023-01-29T00:29:49.868Z,-1.02
2023-01-29T00:32:16.548Z,-1.04
2023-01-29T00:34:43.059Z,-1.05
2023-01-29T00:37:09.498Z,-1.02
2023-01-29T00:39:47.130Z,-1.19
2023-01-29T00:42:14.424Z,-1.27
2023-01-29T00:44:40.815Z,-1.38
2023-01-29T00:47:07.377Z,-1.27
2023-01-29T00:49:33.838Z,-1.34
2023-01-29T00:52:00.381Z,-1.35
2023-01-29T00:54:26.724Z,-1.40
2023-01-29T00:56:53.246Z,-1.55
2023-01-29T00:59:19.635Z,-1.41
2023-01-29T01:01:46.217Z,-1.42
2023-01-29T01:04:13.256Z,-1.42
2023-01-29T01:06:41.869Z,-1.47
2023-01-29T01:09:10.180Z,-1.51
2023-01-29T01:11:36.482Z,-1.56
2023-01-29T01:14:03.189Z,-1.68
2023-01-29T01:16:29.688Z,-1.68
2023-01-29T01:18:57.067Z,-1.65
2023-01-29T01:21:23.418Z,-1.72
2023-01-29T01:23:50.210Z,-1.63
2023-01-29T01:26:16.614Z,-1.73
2023-01-29T01:28:43.113Z,-1.80
2023-01-29T01:31:11.223Z,-1.79
2023-01-29T01:33:38.259Z,-1.73
2023-01-29T01:36:06.107Z,-1.76
2023-01-29T01:38:32.575Z,-1.90
2023-01-29T01:40:58.971Z,-1.85
2023-01-29T01:43:25.395Z,-1.93
2023-01-29T01:45:51.884Z,-1.88
2023-01-29T01:48:25.502Z,-1.93
2023-01-29T01:50:58.217Z,-1.88
2023-01-29T01:53:43.865Z,-1.95
2023-01-29T01:56:15.687Z,-1.94
2023-01-29T01:58:47.275Z,-2.03
2023-01-29T02:01:14.167Z,-2.00
2023-01-29T02:03:56.105Z,-2.09
2023-01-29T02:06:22.969Z,-2.15
2023-01-29T02:08:57.890Z,-2.11
2023-01-29T02:11:25.174Z,-2.12
2023-01-29T02:13:53.038Z,-2.14
2023-01-29T02:16:23.289Z,-2.38
2023-01-29T02:18:50.777Z,-2.10
2023-01-29T02:21:45.161Z,-2.15
2023-01-29T02:24:33.022Z,-2.15
2023-01-29T02:27:17.517Z,-2.13
2023-01-29T02:29:59.390Z,-2.12
2023-01-29T02:32:47.468Z,-2.12
2023-01-29T02:35:21.500Z,-2.17
2023-01-29T02:38:27.529Z,-2.21
2023-01-29T02:41:04.779Z,-2.30
2023-01-29T02:43:54.294Z,-2.35
2023-01-29T02:46:25.739Z,-2.40
2023-01-29T02:49:09.316Z,-2.34
2023-01-29T02:51:44.708Z,-2.35
2023-01-29T02:54:21.242Z,-2.36
2023-01-29T02:57:00.406Z,-2.28
2023-01-29T02:59:39.955Z,-2.36
2023-01-29T03:02:15.732Z,-2.36
2023-01-29T03:04:50.757Z,-2.31
2023-01-29T03:07:22.592Z,-2.44
2023-01-29T03:09:53.098Z,-2.45
2023-01-29T03:12:27.972Z,-2.57
2023-01-29T03:14:56.841Z,-2.58
2023-01-29T03:17:30.083Z,-2.50
2023-01-29T03:19:56.449Z,-2.52
2023-01-29T03:22:24.100Z,-2.48
2023-01-29T03:24:57.916Z,-2.35
2023-01-29T03:27:29.723Z,-2.33
2023-01-29T03:29:59.037Z,-2.10
2023-01-29T03:32:28.817Z,-2.05
2023-01-29T03:35:00.967Z,-2.23
2023-01-29T03:37:40.639Z,-1.99
2023-01-29T03:40:08.893Z,-1.99
2023-01-29T03:42:41.985Z,-1.87
2023-01-29T03:45:14.907Z,-1.87
2023-01-29T03:47:59.606Z,-1.78
2023-01-29T03:50:43.613Z,-1.83
2023-01-29T03:53:28.765Z,-1.86
2023-01-29T03:56:13.895Z,-1.91
2023-01-29T03:58:51.055Z,-1.87
2023-01-29T04:01:24.100Z,-1.84
2023-01-29T04:03:58.596Z,-1.76
2023-01-29T04:06:33.524Z,-1.72
2023-01-29T04:09:06.279Z,-1.70
2023-01-29T04:11:36.318Z,-1.70
2023-01-29T04:14:03.365Z,-1.71
2023-01-29T04:16:39.525Z,-1.80
2023-01-29T04:19:06.373Z,-1.88
2023-01-29T04:21:33.848Z,-1.85
2023-01-29T04:24:00.535Z,-1.78
2023-01-29T04:26:51.967Z,-1.90
2023-01-29T04:29:48.831Z,-1.83
2023-01-29T04:32:53.252Z,-1.72
2023-01-29T04:35:31.784Z,-1.78
2023-01-29T04:38:04.605Z,-1.82
2023-01-29T04:40:47.271Z,-1.84
2023-01-29T04:43:30.243Z,-1.83
2023-01-29T04:46:17.231Z,-1.73
2023-01-29T04:49:08.487Z,-1.74
2023-01-29T04:51:59.549Z,-1.93
2023-01-29T04:54:47.122Z,-1.82
2023-01-29T04:57:26.895Z,-1.63
2023-01-29T05:00:19.371Z,-1.46
2023-01-29T05:02:46.945Z,-1.43
2023-01-29T05:05:15.477Z,-1.11
2023-01-29T05:07:43.568Z,-1.36
2023-01-29T05:10:13.061Z,-1.63
2023-01-29T05:12:41.358Z,-1.55
2023-01-29T05:15:19.489Z,-1.54
2023-01-29T05:17:46.056Z,-1.44
2023-01-29T05:20:12.766Z,-1.44
2023-01-29T05:22:41.717Z,-1.26
2023-01-29T05:25:29.757Z,-1.08
2023-01-29T05:27:56.156Z,-1.12
2023-01-29T05:30:22.740Z,-1.24
2023-01-29T05:32:49.152Z,-1.24
2023-01-29T05:35:15.611Z,-0.94
2023-01-29T05:37:42.082Z,-1.01
2023-01-29T05:40:09.589Z,-0.93
2023-01-29T05:42:35.951Z,-1.10
2023-01-29T05:45:02.602Z,-0.72
2023-01-29T05:47:29.004Z,-0.83
2023-01-29T05:49:55.539Z,-0.87
2023-01-29T05:52:21.897Z,-1.13
2023-01-29T05:54:48.413Z,-1.26
2023-01-29T05:57:15.367Z,-0.98
2023-01-29T05:59:41.979Z,-0.96
2023-01-29T06:02:08.414Z,-1.16
2023-01-29T06:04:34.934Z,-0.79
2023-01-29T06:07:01.394Z,-1.16
2023-01-29T06:09:27.778Z,-0.96
2023-01-29T06:11:54.339Z,-1.35
2023-01-29T06:14:20.794Z,-1.52
2023-01-29T06:16:47.200Z,-1.68
2023-01-29T06:19:13.555Z,-1.66
2023-01-29T06:21:40.069Z,-1.64
2023-01-29T06:24:07.103Z,-1.47
2023-01-29T06:26:33.448Z,-1.38
2023-01-29T06:29:00.096Z,-1.23
2023-01-29T06:31:38.266Z,-1.26
2023-01-29T06:34:05.911Z,-1.43
2023-01-29T06:36:32.436Z,-1.34
2023-01-29T06:38:59.031Z,-1.22
2023-01-29T06:41:25.573Z,-1.41
2023-01-29T06:43:52.174Z,-1.14
2023-01-29T06:46:18.620Z,-1.07
2023-01-29T06:48:45.040Z,-1.23
2023-01-29T06:51:11.837Z,-1.19
2023-01-29T06:53:39.824Z,-1.27
2023-01-29T06:56:07.517Z,-1.17
2023-01-29T06:58:36.951Z,-1.30
2023-01-29T07:01:12.636Z,-1.12
2023-01-29T07:03:42.266Z,-1.12
2023-01-29T07:06:09.467Z,-1.10
2023-01-29T07:08:37.428Z,-1.37
2023-01-29T07:11:04.308Z,-1.01
2023-01-29T07:13:30.938Z,-1.00
2023-01-29T07:16:01.808Z,-1.10
2023-01-29T07:18:28.902Z,-1.36
2023-01-29T07:20:56.330Z,-1.53
2023-01-29T07:23:24.173Z,-1.56
2023-01-29T07:25:51.118Z,-1.72
2023-01-29T07:28:19.153Z,-1.31
2023-01-29T07:30:45.595Z,-1.17
2023-01-29T07:33:12.018Z,-1.36
2023-01-29T07:35:40.408Z,-1.36
2023-01-29T07:38:07.817Z,-1.41
2023-01-29T07:40:34.381Z,-1.18
2023-01-29T07:43:02.435Z,-1.29
2023-01-29T07:45:29.901Z,-0.98
2023-01-29T07:47:56.899Z,-0.72
2023-01-29T07:50:24.861Z,-0.58
2023-01-29T07:52:51.868Z,-0.40
2023-01-29T07:55:18.444Z,-0.61
2023-01-29T07:57:45.043Z,-0.55
2023-01-29T08:00:12.786Z,-0.60
2023-01-29T08:02:39.888Z,-0.56
2023-01-29T08:05:06.692Z,-0.45
2023-01-29T08:07:33.165Z,-0.38
2023-01-29T08:09:59.551Z,-0.51
2023-01-29T08:12:25.991Z,-0.45
2023-01-29T08:14:52.669Z,-0.38
2023-01-29T08:17:19.232Z,-0.31
2023-01-29T08:19:45.650Z,-0.03
2023-01-29T08:22:11.996Z,-0.23
2023-01-29T08:24:53.302Z,-0.12
2023-01-29T08:27:20.717Z,0.06
2023-01-29T08:29:47.367Z,0.13
2023-01-29T08:32:13.697Z,-0.03
2023-01-29T08:34:40.291Z,-0.05
2023-01-29T08:37:06.613Z,-0.10
2023-01-29T08:39:34.503Z,0.05
2023-01-29T08:42:01.159Z,0.20
2023-01-29T08:44:27.726Z,0.34
2023-01-29T08:46:54.074Z,0.04
2023-01-29T08:49:20.759Z,-0.12
2023-01-29T08:51:47.210Z,-0.25
2023-01-29T08:54:13.617Z,-0.06
2023-01-29T08:56:40.057Z,0.42
2023-01-29T08:59:06.418Z,0.72
2023-01-29T09:01:32.798Z,0.31
2023-01-29T09:03:59.559Z,0.24
2023-01-29T09:06:25.885Z,0.17
2023-01-29T09:08:52.735Z,0.04
2023-01-29T09:11:19.062Z,0.51
2023-01-29T09:13:45.493Z,0.35
2023-01-29T09:16:11.819Z,0.48
2023-01-29T09:18:38.304Z,-0.02
2023-01-29T09:21:05.010Z,-0.24
2023-01-29T09:23:32.148Z,0.18
2023-01-29T09:25:58.576Z,0.55
2023-01-29T09:28:25.021Z,0.67
2023-01-29T09:30:51.582Z,0.45
2023-01-29T09:33:18.098Z,0.57
2023-01-29T09:35:44.896Z,0.23
2023-01-29T09:38:11.697Z,0.20
2023-01-29T09:40:47.105Z,0.95
2023-01-29T09:43:18.575Z,0.67
2023-01-29T09:46:05.663Z,0.88
2023-01-29T09:48:35.320Z,0.85
2023-01-29T09:51:06.650Z,0.67
2023-01-29T09:53:39.160Z,0.79
2023-01-29T09:56:14.803Z,0.88
2023-01-29T09:58:43.842Z,0.80
2023-01-29T10:01:32.609Z,1.05
2023-01-29T10:04:08.359Z,1.01
2023-01-29T10:07:10.710Z,1.26
2023-01-29T10:09:47.993Z,1.66
2023-01-29T10:12:33.195Z,1.34
2023-01-29T10:15:23.323Z,1.39
2023-01-29T10:18:12.775Z,1.36
2023-01-29T10:21:13.277Z,1.10
2023-01-29T10:23:47.770Z,1.05
2023-01-29T10:26:14.268Z,1.49
2023-01-29T10:28:43.896Z,1.49
2023-01-29T10:31:17.092Z,0.99
2023-01-29T10:34:01.455Z,1.26
2023-01-29T10:36:40.404Z,1.49
2023-01-29T10:39:16.082Z,1.20
2023-01-29T10:42:04.278Z,1.03
2023-01-29T10:44:59.859Z,0.82
2023-01-29T10:48:27.965Z,1.24
2023-01-29T10:51:28.375Z,1.01
2023-01-29T10:54:16.703Z,1.13
2023-01-29T10:57:07.958Z,1.11
2023-01-29T11:00:12.102Z,0.96
2023-01-29T11:02:44.934Z,0.96
2023-01-29T11:05:42.005Z,1.32
2023-01-29T11:08:13.537Z,1.45
2023-01-29T11:11:07.483Z,1.44
2023-01-29T11:13:40.714Z,1.65
2023-01-29T11:16:08.855Z,2.34
2023-01-29T11:18:59.667Z,2.48
2023-01-29T11:21:28.760Z,2.63
2023-01-29T11:24:13.540Z,2.99
2023-01-29T11:26:42.374Z,3.01
2023-01-29T11:29:48.486Z,3.20
2023-01-29T11:32:25.938Z,3.02
2023-01-29T11:35:02.254Z,2.87
2023-01-29T11:37:38.089Z,2.73
2023-01-29T11:40:19.755Z,2.69
2023-01-29T11:42:47.177Z,2.70
2023-01-29T11:45:29.808Z,2.62
2023-01-29T11:47:57.042Z,2.66
2023-01-29T11:50:26.324Z,2.76
2023-01-29T11:52:52.946Z,3.02
2023-01-29T11:55:23.231Z,3.88
2023-01-29T11:57:53.339Z,4.15
2023-01-29T12:00:24.182Z,4.40
2023-01-29T12:03:24.865Z,4.36
2023-01-29T12:06:28.266Z,4.99
2023-01-29T12:08:56.857Z,5.04
2023-01-29T12:11:34.415Z,4.84
2023-01-29T12:14:04.006Z,4.54
2023-01-29T12:16:39.614Z,4.28
2023-01-29T12:19:11.676Z,4.18
2023-01-29T12:21:47.004Z,3.97
2023-01-29T12:24:29.530Z,3.69
2023-01-29T12:27:06.051Z,4.02
2023-01-29T12:29:52.438Z,3.47
2023-01-29T12:32:34.651Z,3.90
2023-01-29T12:35:10.928Z,3.83
2023-01-29T12:37:45.433Z,3.43
2023-01-29T12:40:17.525Z,2.83
2023-01-29T12:42:55.363Z,2.95
2023-01-29T12:45:24.931Z,2.80
2023-01-29T12:48:05.350Z,2.43
2023-01-29T12:50:37.461Z,2.60
2023-01-29T12:53:19.203Z,2.94
2023-01-29T12:55:50.402Z,2.89
2023-01-29T12:58:29.042Z,2.44
2023-01-29T13:01:01.195Z,2.28
2023-01-29T13:03:33.508Z,2.36
2023-01-29T13:06:05.885Z,2.77
2023-01-29T13:08:39.635Z,2.94
2023-01-29T13:11:39.511Z,2.59
2023-01-29T13:14:19.470Z,3.21
2023-01-29T13:16:50.720Z,2.94
2023-01-29T13:19:25.140Z,3.25
2023-01-29T13:21:52.571Z,3.66
2023-01-29T13:24:23.470Z,4.00
2023-01-29T13:26:50.537Z,4.45
2023-01-29T13:29:25.505Z,4.93
2023-01-29T13:32:04.571Z,5.36
2023-01-29T13:34:45.511Z,5.46
2023-01-29T13:37:22.045Z,5.51
2023-01-29T13:39:51.604Z,5.39
2023-01-29T13:42:25.861Z,5.65
2023-01-29T13:44:55.595Z,5.78
2023-01-29T13:47:34.344Z,5.65
2023-01-29T13:50:07.878Z,5.27
2023-01-29T13:52:44.136Z,5.20
2023-01-29T13:55:13.832Z,5.33
2023-01-29T13:57:45.945Z,4.88
2023-01-29T14:00:21.915Z,5.44
2023-01-29T14:03:08.280Z,5.70
2023-01-29T14:05:56.744Z,5.32
2023-01-29T14:08:35.311Z,4.73
2023-01-29T14:11:35.110Z,4.33
2023-01-29T14:14:01.729Z,4.36
2023-01-29T14:16:35.543Z,4.26
2023-01-29T14:19:05.135Z,3.98
2023-01-29T14:21:34.144Z,3.64
2023-01-29T14:24:18.519Z,3.44
2023-01-29T14:26:47.210Z,3.27
2023-01-29T14:29:16.493Z,3.35
2023-01-29T14:32:08.001Z,3.18
2023-01-29T14:35:20.636Z,3.38
2023-01-29T14:37:50.893Z,3.48
2023-01-29T14:40:20.166Z,3.42
2023-01-29T14:43:04.052Z,3.10
2023-01-29T14:45:35.594Z,2.88
2023-01-29T14:48:11.176Z,2.97
2023-01-29T14:50:37.635Z,3.11
2023-01-29T14:53:15.525Z,2.77
2023-01-29T14:55:48.329Z,2.68
2023-01-29T14:58:23.791Z,2.66
2023-01-29T15:00:53.946Z,2.40
2023-01-29T15:03:32.286Z,2.45
2023-01-29T15:05:59.915Z,2.44
2023-01-29T15:08:29.121Z,2.27
2023-01-29T15:11:02.961Z,2.16
2023-01-29T15:13:47.527Z,2.29
2023-01-29T15:16:25.642Z,1.94
2023-01-29T15:18:58.357Z,2.27
2023-01-29T15:21:24.760Z,2.42
2023-01-29T15:24:05.053Z,2.30
2023-01-29T15:26:31.824Z,2.34
2023-01-29T15:29:05.014Z,2.30
2023-01-29T15:31:32.425Z,1.99
2023-01-29T15:34:05.316Z,2.12
2023-01-29T15:36:32.186Z,2.30
2023-01-29T15:39:19.827Z,2.34
2023-01-29T15:41:46.700Z,2.21
2023-01-29T15:44:15.555Z,1.87
2023-01-29T15:46:45.792Z,1.92
2023-01-29T15:49:20.975Z,2.14
2023-01-29T15:51:48.877Z,1.98
2023-01-29T15:54:17.248Z,1.76
2023-01-29T15:56:49.985Z,1.66
2023-01-29T15:59:20.042Z,1.68
2023-01-29T16:01:46.602Z,1.71
2023-01-29T16:04:18.676Z,1.98
2023-01-29T16:06:45.980Z,1.81
2023-01-29T16:09:19.715Z,1.51
2023-01-29T16:11:48.358Z,1.37
2023-01-29T16:14:17.718Z,1.66
2023-01-29T16:16:44.307Z,1.47
2023-01-29T16:19:30.177Z,1.90
2023-01-29T16:21:59.294Z,1.91
2023-01-29T16:24:26.098Z,1.88
2023-01-29T16:26:59.284Z,1.68
2023-01-29T16:29:31.916Z,1.75
2023-01-29T16:32:00.362Z,1.54
2023-01-29T16:34:30.613Z,1.57
2023-01-29T16:36:57.562Z,2.02
2023-01-29T16:39:30.599Z,1.84
2023-01-29T16:42:11.935Z,1.89
2023-01-29T16:44:40.528Z,1.69
2023-01-29T16:47:26.920Z,1.66
2023-01-29T16:49:58.931Z,1.37
2023-01-29T16:52:32.003Z,1.60
2023-01-29T16:55:01.301Z,1.57
2023-01-29T16:57:32.498Z,1.65
2023-01-29T17:00:04.743Z,1.33
2023-01-29T17:02:36.942Z,1.14
2023-01-29T17:05:08.302Z,1.41
2023-01-29T17:07:37.073Z,1.31
2023-01-29T17:10:06.700Z,1.26
2023-01-29T17:12:33.877Z,1.58
2023-01-29T17:15:04.097Z,1.75
2023-01-29T17:17:35.178Z,1.66
2023-01-29T17:20:14.100Z,1.50
2023-01-29T17:22:40.856Z,1.42
2023-01-29T17:25:07.624Z,1.44
2023-01-29T17:27:34.059Z,1.62
2023-01-29T17:30:00.504Z,1.67
2023-01-29T17:32:44.207Z,1.97
2023-01-29T17:35:13.864Z,2.03
2023-01-29T17:37:40.683Z,1.93
2023-01-29T17:40:18.762Z,1.74
2023-01-29T17:42:45.154Z,1.54
2023-01-29T17:45:11.732Z,1.79
2023-01-29T17:47:38.077Z,1.77
2023-01-29T17:50:21.337Z,2.04
2023-01-29T17:52:48.035Z,2.01
2023-01-29T17:55:14.797Z,1.96
2023-01-29T17:57:41.455Z,1.71
2023-01-29T18:00:16.801Z,1.73
2023-01-29T18:02:43.598Z,1.73
2023-01-29T18:05:10.896Z,1.47
2023-01-29T18:07:42.149Z,1.33
2023-01-29T18:10:16.051Z,1.42
2023-01-29T18:12:42.458Z,1.86
2023-01-29T18:15:10.175Z,1.86
2023-01-29T18:17:37.091Z,1.52
2023-01-29T18:20:04.258Z,1.60
2023-01-29T18:22:30.552Z,1.53
2023-01-29T18:24:56.885Z,1.34
2023-01-29T18:27:23.675Z,1.56
2023-01-29T18:29:50.029Z,1.38
2023-01-29T18:32:16.615Z,1.25
2023-01-29T18:34:43.037Z,1.50
2023-01-29T18:37:12.073Z,1.24
2023-01-29T18:39:39.223Z,1.36
2023-01-29T18:42:05.585Z,1.09
2023-01-29T18:44:32.029Z,0.81
2023-01-29T18:46:58.489Z,1.37
2023-01-29T18:49:24.795Z,1.38
2023-01-29T18:51:51.211Z,1.31
2023-01-29T18:54:17.533Z,1.18
2023-01-29T18:57:13.204Z,1.29
2023-01-29T18:59:30.271Z,0.55
2023-01-29T19:01:56.891Z,0.66
2023-01-29T19:04:23.229Z,0.91
2023-01-29T19:06:49.579Z,1.23
2023-01-29T19:09:15.983Z,0.96
2023-01-29T19:11:42.315Z,1.03
2023-01-29T19:14:08.738Z,0.76
2023-01-29T19:16:35.171Z,1.03
2023-01-29T19:19:01.606Z,1.20
2023-01-29T19:21:28.022Z,0.88
2023-01-29T19:23:54.488Z,0.59
2023-01-29T19:26:20.895Z,0.98
2023-01-29T19:28:47.426Z,1.18
2023-01-29T19:31:14.018Z,1.38
2023-01-29T19:33:40.714Z,1.08
2023-01-29T19:36:07.663Z,1.09
2023-01-29T19:38:34.144Z,0.95
2023-01-29T19:41:00.610Z,1.10
2023-01-29T19:43:29.596Z,0.97
2023-01-29T19:46:00.653Z,1.16
2023-01-29T19:48:27.638Z,0.80
2023-01-29T19:50:59.161Z,0.88
2023-01-29T19:53:28.158Z,1.31
2023-01-29T19:55:59.710Z,1.28
2023-01-29T19:58:26.758Z,1.25
2023-01-29T20:01:00.829Z,1.00
2023-01-29T20:03:28.645Z,1.12
2023-01-29T20:05:56.436Z,0.90
2023-01-29T20:08:23.099Z,1.00
2023-01-29T20:10:50.008Z,0.77
2023-01-29T20:13:16.639Z,1.12
2023-01-29T20:15:47.312Z,0.78
2023-01-29T20:18:14.263Z,0.53
2023-01-29T20:20:42.897Z,1.37
2023-01-29T20:23:11.521Z,0.97
2023-01-29T20:25:38.133Z,1.03
2023-01-29T20:28:10.783Z,1.14
2023-01-29T20:30:38.097Z,1.33
2023-01-29T20:33:06.801Z,0.99
2023-01-29T20:35:34.908Z,1.27
2023-01-29T20:38:02.242Z,0.99
2023-01-29T20:40:29.086Z,0.71
2023-01-29T20:42:55.465Z,0.80
2023-01-29T20:45:22.422Z,1.02
2023-01-29T20:47:49.933Z,0.94
2023-01-29T20:50:17.421Z,0.95
2023-01-29T20:52:44.306Z,1.24
2023-01-29T20:55:12.093Z,1.33
2023-01-29T20:57:39.280Z,1.33
2023-01-29T21:00:07.775Z,1.17
2023-01-29T21:02:34.843Z,1.19
2023-01-29T21:05:01.331Z,1.20
2023-01-29T21:07:27.661Z,1.05
2023-01-29T21:09:54.085Z,1.12
2023-01-29T21:12:20.410Z,1.40
2023-01-29T21:14:46.903Z,1.08
2023-01-29T21:17:13.470Z,1.32
2023-01-29T21:19:39.914Z,1.22
2023-01-29T21:22:06.243Z,1.13
2023-01-29T21:24:32.652Z,1.15
2023-01-29T21:26:59.161Z,1.24
2023-01-29T21:29:25.635Z,1.19
2023-01-29T21:31:52.036Z,0.96
2023-01-29T21:34:18.598Z,0.73
2023-01-29T21:36:45.046Z,1.46
2023-01-29T21:39:11.441Z,1.56
2023-01-29T21:41:38.316Z,1.26
2023-01-29T21:44:04.777Z,1.52
2023-01-29T21:46:31.264Z,1.06
2023-01-29T21:48:57.610Z,0.96
2023-01-29T21:51:24.298Z,1.26
2023-01-29T21:53:50.868Z,1.15
2023-01-29T21:56:17.358Z,1.17
2023-01-29T21:58:44.042Z,0.91
2023-01-29T22:01:35.162Z,1.32
2023-01-29T22:03:56.848Z,1.32
2023-01-29T22:06:23.438Z,1.57
2023-01-29T22:08:50.600Z,1.29
2023-01-29T22:11:17.231Z,1.03
2023-01-29T22:13:43.640Z,1.14
2023-01-29T22:16:10.099Z,0.92
2023-01-29T22:18:36.668Z,1.24
2023-01-29T22:21:03.200Z,1.20
2023-01-29T22:23:30.998Z,1.22
2023-01-29T22:26:07.371Z,1.24
2023-01-29T22:28:33.786Z,1.17
2023-01-29T22:31:05.184Z,1.33
2023-01-29T22:33:31.968Z,1.06
2023-01-29T22:35:58.365Z,1.13
2023-01-29T22:38:24.952Z,1.21
2023-01-29T22:40:52.311Z,1.20
2023-01-29T22:43:19.070Z,1.03
2023-01-29T22:45:46.005Z,1.46
2023-01-29T22:48:13.146Z,1.28
2023-01-29T22:50:40.655Z,1.23
2023-01-29T22:53:07.616Z,1.27
2023-01-29T22:55:34.311Z,1.52
2023-01-29T22:58:00.648Z,1.46
2023-01-29T23:00:27.351Z,1.36
2023-01-29T23:02:53.742Z,1.19
2023-01-29T23:05:20.144Z,1.21
2023-01-29T23:07:46.546Z,1.37
2023-01-29T23:10:14.862Z,1.29
2023-01-29T23:12:42.037Z,1.10
2023-01-29T23:15:08.714Z,1.15
2023-01-29T23:17:35.121Z,1.01
2023-01-29T23:20:01.476Z,1.26
2023-01-29T23:22:28.119Z,1.37
2023-01-29T23:24:54.454Z,1.53
2023-01-29T23:27:20.830Z,1.41
2023-01-29T23:29:48.689Z,1.59
2023-01-29T23:32:18.258Z,1.68
2023-01-29T23:34:44.733Z,1.41
2023-01-29T23:37:11.259Z,1.39
2023-01-29T23:39:37.891Z,1.50
2023-01-29T23:42:04.870Z,1.47
2023-01-29T23:44:31.580Z,1.41
2023-01-29T23:46:57.974Z,1.64
2023-01-29T23:49:24.404Z,1.35
2023-01-29T23:51:50.994Z,1.45
2023-01-29T23:54:18.513Z,1.42
2023-01-29T23:56:45.173Z,1.33
2023-01-29T23:59:12.819Z,1.73
